Time;durP1;ratioP1;P1;durP2;ratioP2;P2;SDS_P1;SDS_P2;PMS_P1;PMS_P2;Temp;Humidity;BMP_temperature;BMP_pressure;BME280_temperature;BME280_humidity;BME280_pressure;Samples;Min_cycle;Max_cycle;Signal;HPM_P1;HPM_P2
2023/07/07 00:00:18;;;;;;;2.55;2.17;;;;;;;13.93;76.84;101805.19;5094723;28;20097;-86
2023/07/07 00:03:04;;;;;;;2.40;2.20;;;;;;;14.02;77.01;101823.31;5094186;28;20070;-87
2023/07/07 00:05:42;;;;;;;2.38;2.17;;;;;;;13.87;77.44;101807.00;5093929;28;20124;-87
2023/07/07 00:08:20;;;;;;;2.40;2.20;;;;;;;13.97;77.40;101823.38;5093582;28;20047;-87
2023/07/07 00:10:58;;;;;;;2.35;2.10;;;;;;;13.87;77.29;101809.63;5094407;28;20035;-87
2023/07/07 00:13:24;;;;;;;2.40;2.00;;;;;;;13.90;77.38;101821.75;5093905;28;20016;-86
2023/07/07 00:15:49;;;;;;;2.50;2.10;;;;;;;13.77;77.46;101804.53;5093636;28;20024;-87
2023/07/07 00:18:26;;;;;;;3.50;2.40;;;;;;;13.83;77.62;101823.59;5093832;28;20036;-87
2023/07/07 00:21:03;;;;;;;2.53;2.30;;;;;;;13.81;77.69;101832.31;5094376;28;20095;-86
2023/07/07 00:23:32;;;;;;;3.33;2.30;;;;;;;13.78;77.75;101822.81;5092736;28;20411;-87
2023/07/07 00:26:06;;;;;;;2.20;2.00;;;;;;;13.74;77.89;101823.72;5093108;28;20028;-87
2023/07/07 00:28:32;;;;;;;2.58;2.20;;;;;;;13.73;78.07;101828.06;5093131;28;20028;-86
2023/07/07 00:30:58;;;;;;;2.60;2.30;;;;;;;13.69;78.40;101822.88;5092179;28;20404;-86
2023/07/07 00:33:25;;;;;;;2.30;2.10;;;;;;;13.67;78.47;101830.75;5093126;28;20033;-86
2023/07/07 00:35:50;;;;;;;2.75;2.10;;;;;;;13.64;78.52;101822.94;5093358;28;20103;-87
2023/07/07 00:38:16;;;;;;;2.37;2.00;;;;;;;13.61;78.41;101825.63;5092178;28;20116;-86
2023/07/07 00:40:42;;;;;;;2.30;2.10;;;;;;;13.59;78.77;101816.94;5092606;28;20051;-87
2023/07/07 00:43:11;;;;;;;1.90;1.80;;;;;;;13.61;78.82;101825.63;5092023;28;20595;-86
2023/07/07 00:45:37;;;;;;;2.25;1.98;;;;;;;13.59;78.79;101829.97;5092352;28;20472;-87
2023/07/07 00:48:05;;;;;;;1.87;1.77;;;;;;;13.53;79.03;101822.22;5093256;28;20119;-87
2023/07/07 00:50:54;;;;;;;3.47;2.20;;;;;;;13.56;79.19;101833.50;5092243;28;20031;-87
2023/07/07 00:53:20;;;;;;;2.13;1.92;;;;;;;13.52;79.09;101820.50;5092446;28;20024;-87
2023/07/07 00:55:54;;;;;;;2.20;2.00;;;;;;;13.47;79.02;101819.69;5092895;28;20032;-87
2023/07/07 00:58:28;;;;;;;2.30;2.10;;;;;;;13.50;79.14;101828.34;5091955;28;20028;-87
2023/07/07 01:01:13;;;;;;;2.83;2.22;;;;;;;13.48;79.14;101824.03;5092717;28;20112;-86
2023/07/07 01:03:43;;;;;;;2.53;2.20;;;;;;;13.46;79.19;101831.00;5092695;28;20031;-87
2023/07/07 01:06:12;;;;;;;2.78;2.20;;;;;;;13.48;79.56;101834.47;5091509;28;20035;-87
2023/07/07 01:08:40;;;;;;;2.40;2.20;;;;;;;13.44;79.44;101838.84;5093176;28;20031;-87
2023/07/07 01:11:06;;;;;;;2.30;2.10;;;;;;;13.42;79.06;101841.47;5093148;28;20441;-87
2023/07/07 01:13:32;;;;;;;2.70;2.40;;;;;;;13.31;79.38;101818.97;5092433;28;20055;-87
2023/07/07 01:16:16;;;;;;;2.97;2.30;;;;;;;13.37;79.43;101835.41;5092697;28;20050;-87
2023/07/07 01:19:47;;;;;;;2.10;2.00;;;;;;;13.38;79.72;101836.28;5092894;28;20468;-87
2023/07/07 01:25:55;;;;;;;2.47;2.28;;;;;;;13.29;79.82;101829.41;5130993;27;20406;-86
2023/07/07 01:28:31;;;;;;;2.85;2.20;;;;;;;13.29;79.66;101829.41;5090381;28;20066;-87
2023/07/07 01:31:01;;;;;;;2.40;2.20;;;;;;;13.26;80.07;101829.47;5131219;27;20038;-87
2023/07/07 01:33:30;;;;;;;2.40;2.20;;;;;;;13.21;80.13;101831.25;5130323;28;20038;-87
2023/07/07 01:35:55;;;;;;;3.03;2.35;;;;;;;13.16;80.00;101833.03;5131742;28;20027;-87
2023/07/07 01:38:48;;;;;;;2.80;2.10;;;;;;;13.09;80.22;101825.28;5131077;28;20028;-87
2023/07/07 01:41:19;;;;;;;2.85;2.33;;;;;;;13.09;80.18;101833.09;5108037;22;20044;-87
2023/07/07 01:43:50;;;;;;;2.50;2.30;;;;;;;13.05;80.33;101826.19;5090407;28;20465;-87
2023/07/07 01:46:58;;;;;;;2.30;2.10;;;;;;;13.02;80.40;101833.16;5090601;28;20039;-87
2023/07/07 01:49:42;;;;;;;2.47;2.20;;;;;;;12.98;80.46;101829.72;5076475;28;20044;-87
2023/07/07 01:52:16;;;;;;;2.30;2.10;;;;;;;12.94;80.73;101828.03;5089602;28;20429;-87
2023/07/07 01:54:49;;;;;;;2.40;2.10;;;;;;;12.90;80.69;101828.94;5089597;28;20032;-87
2023/07/07 01:57:16;;;;;;;2.22;2.03;;;;;;;12.89;80.78;101825.44;5089689;28;20020;-86
2023/07/07 01:59:42;;;;;;;3.28;2.10;;;;;;;12.86;80.70;101827.22;5089807;28;20111;-87
2023/07/07 02:02:09;;;;;;;2.75;2.10;;;;;;;12.87;80.83;101824.63;5088480;28;20054;-87
2023/07/07 02:04:34;;;;;;;2.67;2.20;;;;;;;12.85;81.04;101828.97;5089519;28;20032;-87
2023/07/07 02:07:00;;;;;;;3.10;2.30;;;;;;;12.87;80.98;101829.84;5089936;28;20031;-87
2023/07/07 02:09:26;;;;;;;2.80;2.40;;;;;;;12.85;81.12;101826.38;5088224;28;20028;-87
2023/07/07 02:11:51;;;;;;;2.50;2.20;;;;;;;12.81;81.13;101815.13;5089254;28;20024;-87
2023/07/07 02:14:16;;;;;;;2.40;2.20;;;;;;;12.72;81.42;101807.38;5089502;28;20033;-86
2023/07/07 02:16:44;;;;;;;3.43;2.40;;;;;;;12.80;81.11;101822.94;5088695;28;20019;-87
2023/07/07 02:19:10;;;;;;;2.83;2.50;;;;;;;12.75;81.20;101817.78;5088881;28;20028;-87
2023/07/07 02:21:35;;;;;;;2.50;2.30;;;;;;;12.74;81.24;101809.97;5088877;28;20036;-87
2023/07/07 02:24:00;;;;;;;3.10;2.30;;;;;;;12.73;81.11;101819.53;5089214;28;20029;-87
2023/07/07 02:26:26;;;;;;;2.93;2.47;;;;;;;12.72;81.36;101816.94;5089485;28;20392;-87
2023/07/07 02:28:51;;;;;;;3.77;2.43;;;;;;;12.67;81.74;101817.81;5088783;28;20032;-87
2023/07/07 02:31:17;;;;;;;3.77;2.40;;;;;;;12.64;81.54;101817.88;5090431;28;20031;-87
2023/07/07 02:33:43;;;;;;;4.18;2.50;;;;;;;12.62;81.55;101814.41;5090517;28;20028;-87
2023/07/07 02:36:11;;;;;;;2.83;2.57;;;;;;;12.63;81.63;101823.09;5077370;28;20047;-87
2023/07/07 02:38:36;;;;;;;3.47;2.50;;;;;;;12.60;81.79;101825.72;5075915;28;20047;-87
2023/07/07 02:41:02;;;;;;;4.57;2.47;;;;;;;12.46;81.55;101810.19;5075368;28;20489;-87
2023/07/07 02:43:28;;;;;;;2.40;2.20;;;;;;;12.53;82.02;101827.50;5074783;28;20528;-87
2023/07/07 02:45:54;;;;;;;3.00;2.40;;;;;;;12.50;82.06;101817.97;5075288;28;20283;-86
2023/07/07 02:48:21;;;;;;;3.37;2.30;;;;;;;12.50;82.12;101832.75;5075848;28;20016;-87
2023/07/07 02:50:56;;;;;;;;;;;;;;;12.47;81.92;101830.16;5075367;28;20031;-87
2023/07/07 02:53:24;;;;;;;2.88;2.20;;;;;;;12.43;82.09;101836.28;5075485;28;19919;-86
2023/07/07 02:55:50;;;;;;;2.92;2.53;;;;;;;12.39;82.13;101827.59;5074879;28;20028;-87
2023/07/07 02:58:15;;;;;;;3.97;2.50;;;;;;;12.39;82.42;101838.00;5074595;28;20026;-87
2023/07/07 03:00:40;;;;;;;2.80;2.40;;;;;;;12.34;82.27;101832.00;5075227;28;20021;-87
2023/07/07 03:03:07;;;;;;;2.60;2.40;;;;;;;12.36;82.27;101838.06;5101916;22;20046;-87
2023/07/07 03:05:32;;;;;;;2.95;2.38;;;;;;;12.36;82.60;101840.66;5034909;28;20026;-87
2023/07/07 03:07:58;;;;;;;4.07;2.60;;;;;;;12.34;82.41;101847.59;5035092;28;20083;-87
2023/07/07 03:10:23;;;;;;;4.10;2.53;;;;;;;12.33;82.37;101844.13;5034823;28;20021;-87
2023/07/07 03:12:48;;;;;;;2.77;2.30;;;;;;;12.28;82.82;101835.50;5034226;28;20028;-87
2023/07/07 03:15:20;;;;;;;3.87;2.80;;;;;;;12.27;82.62;101848.53;5034736;28;20029;-87
2023/07/07 03:17:46;;;;;;;2.80;2.20;;;;;;;12.21;82.50;101841.63;5034884;28;20026;-85
2023/07/07 03:20:11;;;;;;;4.57;2.60;;;;;;;12.18;82.69;101846.84;5035018;28;20040;-86
2023/07/07 03:22:37;;;;;;;2.20;2.00;;;;;;;12.14;82.80;101846.00;5034234;28;20106;-86
2023/07/07 03:25:02;;;;;;;2.50;2.30;;;;;;;12.11;83.12;101839.91;5033756;28;20064;-87
2023/07/07 03:27:27;;;;;;;2.67;2.30;;;;;;;12.14;82.81;101843.41;5034425;28;20072;-86
2023/07/07 03:29:53;;;;;;;2.80;2.40;;;;;;;12.12;82.92;101841.66;5034787;28;20462;-86
2023/07/07 03:32:18;;;;;;;2.50;2.30;;;;;;;12.07;83.16;101841.69;5033831;28;20060;-87
2023/07/07 03:34:44;;;;;;;2.57;2.37;;;;;;;12.05;83.15;101839.09;5034753;28;20049;-87
2023/07/07 03:37:10;;;;;;;2.97;2.40;;;;;;;12.09;83.09;101847.75;5034008;28;20049;-86
2023/07/07 03:39:35;;;;;;;2.80;2.40;;;;;;;12.06;83.78;101852.97;5033899;28;20040;-87
2023/07/07 03:42:01;;;;;;;2.67;2.20;;;;;;;12.05;83.33;101848.63;5040553;28;20795;-86
2023/07/07 03:44:26;;;;;;;2.63;2.20;;;;;;;12.04;83.66;101842.56;5054243;28;20477;-86
2023/07/07 03:46:51;;;;;;;2.40;2.10;;;;;;;12.04;84.08;101850.38;5052696;28;20454;-86
2023/07/07 03:49:26;;;;;;;2.20;2.00;;;;;;;11.96;83.91;101841.72;5054121;28;20104;-87
2023/07/07 03:51:51;;;;;;;2.70;2.20;;;;;;;11.94;83.87;101839.97;5054592;28;20029;-87
2023/07/07 03:54:16;;;;;;;2.70;1.90;;;;;;;11.89;84.04;101840.88;5053120;28;20078;-87
2023/07/07 03:56:42;;;;;;;2.33;2.07;;;;;;;11.94;84.13;101853.88;5053920;28;20021;-86
2023/07/07 03:59:22;;;;;;;2.17;1.90;;;;;;;11.92;84.04;101849.56;5048228;28;20413;-87
2023/07/07 04:01:49;;;;;;;2.33;2.13;;;;;;;11.94;84.18;101848.66;5053035;28;20378;-87
2023/07/07 04:04:14;;;;;;;2.30;2.10;;;;;;;11.89;84.36;101833.09;5053922;28;20108;-87
2023/07/07 04:06:48;;;;;;;3.03;2.20;;;;;;;11.98;85.04;101845.22;5014273;28;20113;-87
2023/07/07 04:09:13;;;;;;;2.30;2.10;;;;;;;11.95;84.13;101841.72;5016262;28;20029;-86
2023/07/07 04:11:39;;;;;;;2.43;2.23;;;;;;;11.99;84.10;101852.13;5053377;28;20059;-87
2023/07/07 04:14:04;;;;;;;2.40;2.20;;;;;;;12.02;84.08;101862.53;5052854;28;20037;-86
2023/07/07 04:16:29;;;;;;;2.80;2.20;;;;;;;11.97;84.28;101835.66;5053315;28;20018;-87
2023/07/07 04:18:55;;;;;;;2.23;2.03;;;;;;;12.03;84.11;101832.19;5053914;28;20389;-86
2023/07/07 04:21:26;;;;;;;2.75;2.30;;;;;;;12.12;83.84;101847.75;5052817;28;20025;-86
2023/07/07 04:23:53;;;;;;;2.58;2.10;;;;;;;12.13;84.93;101864.19;5053513;28;20021;-85
2023/07/07 04:26:20;;;;;;;2.85;2.20;;;;;;;12.16;84.36;101864.19;5053124;28;20029;-87
2023/07/07 04:28:45;;;;;;;3.13;2.30;;;;;;;12.19;84.91;101854.63;5052912;28;20063;-87
2023/07/07 04:31:12;;;;;;;2.30;2.10;;;;;;;12.22;83.90;101858.94;5053175;28;20057;-87
2023/07/07 04:33:38;;;;;;;;;;;;;;;12.29;85.24;101870.19;5053569;28;20064;-86
2023/07/07 04:36:07;;;;;;;2.38;2.17;;;;;;;12.31;85.38;101868.44;5052799;28;19955;-87
2023/07/07 04:38:32;;;;;;;2.47;2.20;;;;;;;12.31;85.91;101863.25;5052878;28;20116;-87
2023/07/07 04:41:12;;;;;;;2.33;2.13;;;;;;;12.38;85.06;101864.94;5053261;28;20159;-87
2023/07/07 04:43:40;;;;;;;2.20;2.00;;;;;;;12.41;84.35;101870.09;5052514;28;20025;-86
2023/07/07 04:46:07;;;;;;;2.28;2.08;;;;;;;12.48;84.92;101855.31;5053094;28;20029;-87
2023/07/07 04:48:32;;;;;;;2.20;2.00;;;;;;;12.47;85.42;101854.47;5053161;28;20484;-86
2023/07/07 04:51:09;;;;;;;1.90;1.80;;;;;;;12.49;85.30;101852.72;5052586;28;20059;-87
2023/07/07 04:53:37;;;;;;;3.03;2.13;;;;;;;12.55;84.54;101859.63;5053006;28;20549;-86
2023/07/07 04:56:10;;;;;;;2.17;1.98;;;;;;;12.61;84.75;101859.56;5053392;28;20074;-86
2023/07/07 04:58:37;;;;;;;2.20;2.00;;;;;;;12.64;84.41;101854.34;5052156;28;20017;-86
2023/07/07 05:01:06;;;;;;;2.65;2.22;;;;;;;12.75;84.22;101862.06;5060196;22;20044;-86
2023/07/07 05:03:32;;;;;;;3.72;2.20;;;;;;;12.83;84.58;101862.00;5052408;28;20071;-87
2023/07/07 05:05:58;;;;;;;2.30;2.10;;;;;;;12.92;84.43;101866.28;5053003;28;20436;-85
2023/07/07 05:08:29;;;;;;;2.80;2.30;;;;;;;12.99;84.66;101867.94;5052999;28;20040;-86
2023/07/07 05:10:54;;;;;;;2.35;2.10;;;;;;;13.07;84.62;101863.50;5052349;28;20084;-87
2023/07/07 05:13:20;;;;;;;2.30;2.00;;;;;;;13.13;84.37;101860.88;5052652;28;20049;-87
2023/07/07 05:15:45;;;;;;;3.40;2.20;;;;;;;13.20;84.45;101856.47;5054068;28;20441;-87
2023/07/07 05:18:13;;;;;;;2.33;2.00;;;;;;;13.29;83.93;101861.56;5051700;28;20029;-87
2023/07/07 05:20:38;;;;;;;2.58;2.28;;;;;;;13.37;83.85;101858.88;5053267;28;20465;-87
2023/07/07 05:23:03;;;;;;;3.57;2.40;;;;;;;13.49;82.84;101862.28;5052776;28;20075;-87
2023/07/07 05:25:29;;;;;;;2.97;2.40;;;;;;;13.63;82.77;101864.72;5051748;28;20047;-87
2023/07/07 05:27:54;;;;;;;3.33;2.40;;;;;;;13.72;82.17;101862.88;5052362;28;20044;-87
2023/07/07 05:30:19;;;;;;;2.53;2.07;;;;;;;13.80;82.32;101854.91;5052367;28;20025;-87
2023/07/07 05:32:45;;;;;;;2.80;2.07;;;;;;;13.88;82.39;101854.84;5052574;28;20025;-87
2023/07/07 05:35:10;;;;;;;3.23;2.20;;;;;;;14.02;82.38;101865.97;5052476;28;20053;-88
2023/07/07 05:37:35;;;;;;;2.73;2.10;;;;;;;14.11;82.05;101861.50;5052550;28;20025;-87
2023/07/07 05:40:01;;;;;;;2.70;2.17;;;;;;;14.20;82.43;101867.47;5051767;28;20025;-87
2023/07/07 05:42:28;;;;;;;2.40;2.20;;;;;;;14.31;81.78;101866.44;5052526;28;20021;-87
2023/07/07 05:44:53;;;;;;;3.97;2.40;;;;;;;14.39;80.83;101863.72;5068906;28;20028;-85
2023/07/07 05:47:18;;;;;;;3.20;2.40;;;;;;;14.49;80.46;101866.16;5071077;28;20384;-84
2023/07/07 05:49:44;;;;;;;3.10;2.40;;;;;;;14.55;80.47;101865.19;5072805;28;20085;-83
2023/07/07 05:52:09;;;;;;;3.00;2.50;;;;;;;14.66;80.03;101868.50;5072546;28;20142;-84
2023/07/07 05:54:34;;;;;;;5.67;3.10;;;;;;;14.77;79.51;101868.38;5070575;28;20457;-84
2023/07/07 05:57:02;;;;;;;4.13;2.70;;;;;;;14.84;80.00;101863.91;5072822;28;20025;-83
2023/07/07 05:59:29;;;;;;;3.95;2.58;;;;;;;14.98;79.54;101881.97;5072651;28;20024;-84
2023/07/07 06:01:55;;;;;;;3.22;2.50;;;;;;;15.08;79.63;101877.44;5067788;28;20041;-84
2023/07/07 06:04:20;;;;;;;3.10;2.53;;;;;;;15.12;79.66;101874.75;5070644;28;20036;-83
2023/07/07 06:06:45;;;;;;;3.00;2.20;;;;;;;15.14;79.81;101859.88;5051850;28;20492;-83
2023/07/07 06:09:11;;;;;;;4.50;2.47;;;;;;;15.38;79.08;101875.16;5051928;28;20028;-85
2023/07/07 06:11:36;;;;;;;4.27;2.73;;;;;;;16.18;77.10;101873.53;5056016;28;20032;-83
2023/07/07 06:14:01;;;;;;;3.07;2.53;;;;;;;17.29;75.82;101869.97;5055302;28;20024;-83
2023/07/07 06:16:27;;;;;;;4.47;2.77;;;;;;;19.35;74.72;101875.88;5063536;22;20052;-83
2023/07/07 06:18:52;;;;;;;4.50;3.00;;;;;;;21.22;64.78;101874.72;5056589;28;20102;-83
2023/07/07 06:21:18;;;;;;;6.63;3.20;;;;;;;22.21;60.89;101875.53;5054943;28;20032;-83
2023/07/07 06:23:43;;;;;;;4.50;2.90;;;;;;;22.17;61.46;101874.81;5055783;28;20091;-85
2023/07/07 06:26:08;;;;;;;4.27;3.13;;;;;;;21.81;59.34;101875.63;5055351;28;20025;-86
2023/07/07 06:28:34;;;;;;;5.70;3.20;;;;;;;21.57;61.99;101869.66;5056246;28;20025;-85
2023/07/07 06:30:59;;;;;;;4.20;2.90;;;;;;;21.52;62.71;101869.88;5054799;28;20051;-82
2023/07/07 06:33:25;;;;;;;4.43;3.10;;;;;;;21.48;60.88;101870.94;5054820;28;20243;-83
2023/07/07 06:35:50;;;;;;;4.17;3.20;;;;;;;21.51;61.63;101873.44;5054557;28;20580;-85
2023/07/07 06:38:16;;;;;;;6.22;3.38;;;;;;;21.57;60.89;101867.03;5053724;28;20025;-87
2023/07/07 06:40:42;;;;;;;4.80;2.97;;;;;;;21.75;60.37;101878.56;5066195;28;20056;-85
2023/07/07 06:43:07;;;;;;;5.73;3.33;;;;;;;21.85;56.30;101884.25;5054577;28;20422;-86
2023/07/07 06:45:34;;;;;;;7.20;3.57;;;;;;;21.88;58.92;101884.13;5047465;28;20408;-85
2023/07/07 06:48:02;;;;;;;5.57;3.03;;;;;;;21.94;59.30;101888.25;5053656;28;20060;-87
2023/07/07 06:50:41;;;;;;;5.65;3.30;;;;;;;21.88;56.22;101877.06;5055103;28;20535;-87
2023/07/07 06:53:06;;;;;;;5.00;2.92;;;;;;;21.83;58.46;101880.84;5055284;28;20081;-87
2023/07/07 06:55:32;;;;;;;5.03;2.95;;;;;;;21.93;55.08;101879.50;5054661;28;20049;-85
2023/07/07 06:57:57;;;;;;;3.97;2.73;;;;;;;22.01;58.18;101879.97;5053899;28;20025;-87
2023/07/07 07:00:23;;;;;;;3.67;2.63;;;;;;;22.08;54.63;101875.25;5054597;28;20436;-89
2023/07/07 07:02:48;;;;;;;4.20;2.77;;;;;;;22.23;58.81;101886.88;5053809;28;20036;-85
2023/07/07 07:05:14;;;;;;;5.67;2.63;;;;;;;22.30;57.94;101895.38;5055375;28;20847;-87
2023/07/07 07:07:39;;;;;;;4.30;2.83;;;;;;;22.30;57.92;101895.38;5054494;28;20025;-86
2023/07/07 07:10:21;;;;;;;4.77;3.03;;;;;;;22.40;56.18;101901.09;5054816;28;20453;-88
2023/07/07 07:12:55;;;;;;;5.28;3.10;;;;;;;22.28;55.28;101890.19;5053839;28;20033;-86
2023/07/07 07:15:21;;;;;;;7.80;3.00;;;;;;;22.29;52.42;101883.94;5054011;28;20029;-86
2023/07/07 07:17:46;;;;;;;4.20;2.42;;;;;;;22.35;56.62;101882.78;5054601;28;20045;-87
2023/07/07 07:20:32;;;;;;;5.23;2.63;;;;;;;22.47;56.12;101881.38;5067320;28;20421;-87
2023/07/07 07:22:57;;;;;;;3.95;2.55;;;;;;;22.62;54.25;101888.56;5073715;28;20094;-89
2023/07/07 07:25:22;;;;;;;4.93;2.87;;;;;;;22.65;49.92;101898.13;5072683;28;20070;-87
2023/07/07 07:28:06;;;;;;;5.40;2.73;;;;;;;22.59;55.33;101880.75;5063529;28;20119;-86
2023/07/07 07:30:31;;;;;;;4.40;2.60;;;;;;;22.77;54.71;101888.69;5070665;28;20028;-82
2023/07/07 07:32:57;;;;;;;4.43;2.50;;;;;;;22.97;55.60;101895.63;5153271;22;20056;-86
2023/07/07 07:35:23;;;;;;;4.22;2.20;;;;;;;23.22;54.76;101899.69;5046097;28;20030;-89
2023/07/07 07:37:48;;;;;;;4.23;2.40;;;;;;;23.29;53.33;101891.34;5035463;28;20021;-84
2023/07/07 07:40:26;;;;;;;3.33;2.20;;;;;;;23.37;51.95;101885.63;5035335;28;20378;-85
2023/07/07 07:42:54;;;;;;;4.32;2.45;;;;;;;23.47;52.80;101901.91;5042402;28;20026;-87
2023/07/07 07:45:42;;;;;;;3.15;2.15;;;;;;;23.55;55.07;101896.19;5032773;28;20481;-87
2023/07/07 07:48:07;;;;;;;2.83;2.22;;;;;;;23.75;54.41;101903.09;5014278;28;20084;-86
2023/07/07 07:50:58;;;;;;;2.13;1.93;;;;;;;23.94;53.15;101908.19;5014255;28;20021;-86
2023/07/07 07:53:26;;;;;;;2.40;2.20;;;;;;;23.80;49.85;101906.31;5013526;28;20038;-86
2023/07/07 07:56:16;;;;;;;3.13;2.20;;;;;;;23.80;50.19;101906.31;5014262;28;20516;-86
2023/07/07 07:58:42;;;;;;;4.53;2.40;;;;;;;23.77;52.17;101903.81;5022582;28;20422;-87
2023/07/07 08:01:13;;;;;;;3.87;2.27;;;;;;;23.74;52.06;101902.22;5032953;28;20116;-85
2023/07/07 08:03:51;;;;;;;3.20;2.00;;;;;;;23.84;52.04;101905.22;5039694;28;20086;-87
2023/07/07 08:09:41;;;;;;;2.15;1.88;;;;;;;23.98;50.79;101899.19;5054082;28;20094;-89
2023/07/07 08:15:43;;;;;;;1.90;1.70;;;;;;;24.16;52.14;101909.69;5049968;28;20101;-91
2023/07/07 08:18:11;;;;;;;2.35;1.95;;;;;;;24.28;47.62;101914.31;5053696;28;20059;-90
2023/07/07 08:20:52;;;;;;;2.30;1.90;;;;;;;24.31;50.78;101905.34;5054140;28;20025;-92
2023/07/07 08:23:38;;;;;;;2.17;1.98;;;;;;;24.39;48.27;101907.53;5053210;28;20493;-91
2023/07/07 08:26:16;;;;;;;2.13;1.92;;;;;;;24.45;50.50;101904.53;5054896;28;20485;-93
2023/07/07 08:28:41;;;;;;;3.05;2.20;;;;;;;24.57;50.37;101913.59;5053211;28;20017;-91
2023/07/07 08:31:09;;;;;;;4.10;2.40;;;;;;;24.55;46.82;101912.81;5053182;28;20025;-90
2023/07/07 08:33:35;;;;;;;2.20;1.98;;;;;;;24.64;49.93;101910.50;5039696;28;20124;-89
2023/07/07 08:36:02;;;;;;;2.10;1.90;;;;;;;24.73;49.09;101914.44;5032774;28;20428;-89
2023/07/07 08:38:28;;;;;;;1.70;1.60;;;;;;;24.85;50.67;101898.75;5044800;28;20488;-90
2023/07/07 08:41:02;;;;;;;2.10;1.90;;;;;;;24.93;50.43;101902.66;5053485;28;20024;-84
2023/07/07 08:50:00;;;;;;;2.83;1.90;;;;;;;25.42;49.94;101914.78;5052164;28;20036;-86
2023/07/07 08:53:24;;;;;;;2.35;1.80;;;;;;;25.47;48.69;101903.00;5052273;28;20037;-86
2023/07/07 08:56:29;;;;;;;2.60;1.90;;;;;;;25.65;48.75;101916.97;5031889;28;20040;-87
2023/07/07 08:59:32;;;;;;;2.08;1.90;;;;;;;25.73;47.82;101915.53;5053055;28;20028;-88
2023/07/07 09:02:35;;;;;;;1.70;1.52;;;;;;;25.80;47.60;101912.47;5033250;28;20041;-86
2023/07/07 09:05:38;;;;;;;2.10;1.70;;;;;;;25.87;47.62;101916.47;5032916;28;20485;-86
2023/07/07 09:08:28;;;;;;;1.90;1.70;;;;;;;25.89;47.02;101894.13;5033092;28;20025;-89
2023/07/07 09:11:21;;;;;;;1.95;1.67;;;;;;;26.08;46.28;101905.41;5033082;28;20033;-87
2023/07/07 09:14:13;;;;;;;1.98;1.80;;;;;;;26.18;44.10;101911.88;5032319;28;20063;-86
2023/07/07 09:17:13;;;;;;;3.63;1.83;;;;;;;26.16;42.66;101897.81;5047917;28;20041;-86
2023/07/07 09:19:43;;;;;;;1.70;1.60;;;;;;;26.26;45.13;101906.88;5052604;28;20025;-86
2023/07/07 09:22:53;;;;;;;2.20;1.80;;;;;;;26.35;45.60;101894.81;5052113;28;20029;-84
2023/07/07 09:25:52;;;;;;;2.20;2.00;;;;;;;26.44;42.23;101893.34;4989904;28;20041;-94
2023/07/07 09:28:27;;;;;;;2.25;1.85;;;;;;;26.57;43.97;101904.84;4990090;28;20038;-89
2023/07/07 09:31:49;;;;;;;2.08;1.88;;;;;;;26.62;42.62;101897.44;5038748;28;20084;-88
2023/07/07 09:34:30;;;;;;;2.92;2.20;;;;;;;26.62;39.98;101893.94;4991350;28;20034;-82
2023/07/07 09:37:26;;;;;;;3.40;2.10;;;;;;;26.71;43.02;101900.41;4991074;28;20034;-87
2023/07/07 09:40:16;;;;;;;2.13;1.80;;;;;;;26.80;43.60;101897.16;5045427;28;20128;-87
2023/07/07 09:43:07;;;;;;;5.03;2.33;;;;;;;26.56;38.98;101900.50;5053206;28;20099;-89
2023/07/07 09:45:43;;;;;;;3.05;2.22;;;;;;;26.54;39.41;101893.56;5054301;28;20432;-89
2023/07/07 09:48:30;;;;;;;3.72;2.22;;;;;;;26.73;40.33;101901.19;5057374;28;20104;-87
2023/07/07 09:51:13;;;;;;;5.28;2.25;;;;;;;26.79;39.68;101890.16;5059572;28;20024;-89
2023/07/07 09:53:40;;;;;;;5.35;2.58;;;;;;;26.45;35.99;101887.06;5056148;28;20044;-86
2023/07/07 09:56:12;;;;;;;3.78;2.30;;;;;;;26.58;38.11;101885.28;5056747;28;20044;-92
2023/07/07 09:59:06;;;;;;;2.22;1.90;;;;;;;26.75;39.42;101897.44;5064958;22;20048;-94
2023/07/07 10:01:44;;;;;;;4.65;2.30;;;;;;;26.94;39.29;101878.44;5028534;28;20040;-87
2023/07/07 10:04:14;;;;;;;4.10;2.55;;;;;;;27.12;38.55;101881.66;5055596;28;20037;-87
2023/07/07 10:07:02;;;;;;;2.40;2.13;;;;;;;27.27;38.09;101878.88;5056761;28;20025;-92
2023/07/07 10:09:39;;;;;;;2.47;1.98;;;;;;;27.32;39.18;101865.22;5056316;28;20017;-90
2023/07/07 10:12:15;;;;;;;2.58;2.00;;;;;;;27.42;38.19;101872.44;5056698;28;20112;-91
2023/07/07 10:14:54;;;;;;;1.98;1.77;;;;;;;27.63;39.00;101873.72;5056641;28;20021;-92
2023/07/07 10:18:39;;;;;;;1.90;1.80;;;;;;;27.73;36.24;101862.28;5056673;28;20021;-93
2023/07/07 10:21:08;;;;;;;3.20;1.98;;;;;;;27.81;38.22;101860.88;4973183;28;20067;-88
2023/07/07 10:23:49;;;;;;;2.00;1.80;;;;;;;27.86;37.01;101864.06;5056583;28;20017;-88
2023/07/07 10:26:14;;;;;;;3.45;2.17;;;;;;;27.75;36.13;101864.84;5067165;28;20032;-82
2023/07/07 10:28:39;;;;;;;;;;;;;;;27.89;37.14;101874.50;5055411;28;20029;-83
2023/07/07 10:31:05;;;;;;;2.93;2.07;;;;;;;28.05;36.87;101875.09;5073443;28;19924;-85
2023/07/07 10:33:33;;;;;;;4.68;2.28;;;;;;;27.96;31.08;101872.22;5075368;28;20101;-84
2023/07/07 10:36:20;;;;;;;4.22;2.40;;;;;;;27.92;35.56;101866.28;5074917;28;20489;-83
2023/07/07 10:38:45;;;;;;;2.20;1.90;;;;;;;28.16;36.77;101866.31;5075326;28;20524;-83
2023/07/07 10:41:11;;;;;;;;;;;;;;;28.36;34.67;101861.31;5074538;28;20117;-83
2023/07/07 10:43:36;;;;;;;3.10;2.17;;;;;;;28.32;31.31;101859.81;5075205;28;19913;-83
2023/07/07 10:46:01;;;;;;;3.40;2.20;;;;;;;28.33;33.82;101866.88;5075035;28;20770;-84
2023/07/07 10:48:27;;;;;;;3.65;1.95;;;;;;;28.40;34.86;101867.28;5073764;28;20275;-84
2023/07/07 10:51:15;;;;;;;;;;;;;;;28.46;34.72;101867.66;5075496;28;20020;-84
2023/07/07 10:53:51;;;;;;;2.50;2.08;;;;;;;28.59;34.71;101848.88;5076099;28;19934;-83
2023/07/07 10:56:36;;;;;;;1.83;1.73;;;;;;;28.75;35.47;101848.56;5074310;28;20362;-84
2023/07/07 10:59:34;;;;;;;1.83;1.73;;;;;;;29.00;35.17;101849.34;5073968;28;20104;-83
2023/07/07 11:02:17;;;;;;;1.60;1.50;;;;;;;29.22;36.02;101853.00;5040267;28;20062;-85
2023/07/07 11:05:07;;;;;;;1.58;1.48;;;;;;;29.40;35.60;101851.56;5074006;28;20105;-87
2023/07/07 11:07:48;;;;;;;1.60;1.50;;;;;;;29.52;35.26;101843.50;5075370;28;20122;-87
2023/07/07 11:10:32;;;;;;;1.75;1.65;;;;;;;29.61;30.52;101849.94;5074478;28;20130;-88
2023/07/07 11:13:35;;;;;;;2.20;1.73;;;;;;;29.58;28.83;101848.38;5075439;28;20082;-87
2023/07/07 11:16:33;;;;;;;3.13;2.08;;;;;;;29.57;33.58;101860.06;5072113;28;20032;-85
2023/07/07 11:19:21;;;;;;;2.70;2.10;;;;;;;29.48;30.99;101837.56;5074794;28;20031;-86
2023/07/07 11:22:04;;;;;;;2.10;1.90;;;;;;;29.45;28.88;101847.66;5075119;28;20021;-85
2023/07/07 11:24:40;;;;;;;2.95;2.20;;;;;;;29.30;31.76;101847.88;5073987;28;20052;-86
2023/07/07 11:27:26;;;;;;;2.85;2.10;;;;;;;29.42;33.11;101841.59;5074448;28;20404;-85
2023/07/07 11:30:14;;;;;;;2.42;2.05;;;;;;;29.65;32.52;101836.19;5074971;28;20138;-87
2023/07/07 11:33:01;;;;;;;2.25;2.00;;;;;;;29.79;32.03;101836.91;5075201;28;20024;-86
2023/07/07 11:35:57;;;;;;;3.25;2.13;;;;;;;29.78;27.95;101833.38;5073955;28;20032;-86
2023/07/07 11:38:31;;;;;;;3.30;2.05;;;;;;;29.73;31.08;101835.59;5073467;28;20024;-86
2023/07/07 11:41:22;;;;;;;2.00;1.80;;;;;;;29.83;32.67;101827.66;5068375;28;20040;-86
2023/07/07 11:44:19;;;;;;;1.90;1.73;;;;;;;29.96;32.97;101819.50;5054249;28;20040;-90
2023/07/07 11:47:19;;;;;;;2.20;2.00;;;;;;;30.02;32.13;101824.31;5054315;28;20021;-83
2023/07/07 11:50:06;;;;;;;2.42;2.13;;;;;;;30.16;31.92;101832.06;5054082;28;20032;-83
2023/07/07 11:52:31;;;;;;;3.33;2.22;;;;;;;30.27;30.19;101827.63;5053214;28;20033;-87
2023/07/07 11:55:45;;;;;;;4.57;2.23;;;;;;;30.32;31.44;101828.09;5053646;28;20059;-86
2023/07/07 11:58:19;;;;;;;2.00;1.80;;;;;;;30.41;31.50;101831.81;5112210;22;20311;-86
2023/07/07 12:01:04;;;;;;;2.85;2.25;;;;;;;30.39;29.58;101821.22;5034049;28;20110;-86
2023/07/07 12:03:48;;;;;;;2.42;1.98;;;;;;;30.34;30.97;101818.94;5033770;28;20030;-89
2023/07/07 12:06:23;;;;;;;3.22;2.20;;;;;;;30.26;30.27;101805.38;5032693;28;20025;-88
2023/07/07 12:09:03;;;;;;;3.00;2.20;;;;;;;30.28;30.19;101807.91;5033097;28;20032;-84
2023/07/07 12:11:33;;;;;;;2.38;2.00;;;;;;;30.35;31.17;101799.22;5034356;28;20033;-82